Main page
METAR-TAF:

METAR-TAF

Airports :

RAF Valley

Valley, Wales

latitude: 53-15N, longitude: 004-32W, elevation: 1 m

Current weather observation

The report was made 30 minutes ago, at 10:50 UTC
Wind 22 kt from the South
Temperature 13°C
Humidity 82%
Pressure 990 hPa
Visibility: 9000 m

METAR: EGOV 091050Z AUTO 19022KT 9000 SCT020/// BKN045/// 13/10 Q0990

Time: 12:20 (11:20 UTC)


TAF: missing

Weather observations and forecasts of more than 4000 airports (METAR and TAF reports).

The available stations are represented by yellow and red dots on the map.

Hover mouse over dot to see the name of the station.

Then click to see weather observations and forecasts.

To change the map : click on the green buttons with a black cross to zoom in, on the green button with a dash to zoom out, or on the green arrows for adjacent maps.


METAR-TAF: